Accueil
METAR-TAF:

METAR-TAF

Aéroports :

Pilot Point, Alaska, États-Unis

latitude: 57-34-49N, longitude: 157-34-19W, altitude: 17 m

Observation

Le bulletin a été fait il y a 21 minutes, à 04:56 UTC
Vent 9 kt de sud
Température 1°C
Humidité 80%
Pression 989 hPa
Visibilité: 16.1 km
Ciel clair

METAR: PAPN 080456Z AUTO 19009KT 10SM CLR 01/M02 A2920 RMK AO2 SLP891 T00061017 PWINO FZRANO $

Heure: 20:17 (05:17 UTC)


TAF: absent

Observations et prévisions météorologiques de plus de 4000 aéroports (messages METAR et TAF).

Les stations disponibles sont représentées par des disques jaunes et rouges sur la carte.

Passer la souris dessus pour voir le nom de la station.

Cliquer dessus pour voir les observations et prévisions météorologiques.

Pour changer de carte: cliquez sur les boutons verts avec une croix noire pour zoomer, sur le bouton vert avec un tiret pour effectuer un zoom arrière, ou sur les flèches vertes pour les cartes adjacentes.


METAR-TAF: